createdAt,value
2018-11-25T00:00:20.955Z,40.65
2018-11-25T00:02:49.805Z,41.63
2018-11-25T00:05:18.597Z,40.13
2018-11-25T00:07:47.706Z,38.43
2018-11-25T00:10:16.591Z,41.17
2018-11-25T00:12:45.352Z,42.83
2018-11-25T00:15:14.297Z,41.10
2018-11-25T00:17:43.370Z,40.20
2018-11-25T00:20:13.264Z,42.45
2018-11-25T00:22:42.620Z,40.53
2018-11-25T00:25:12.801Z,41.13
2018-11-25T00:27:41.654Z,41.20
2018-11-25T00:30:13.728Z,43.83
2018-11-25T00:32:42.559Z,42.13
2018-11-25T00:35:16.197Z,41.13
2018-11-25T00:37:48.460Z,41.93
2018-11-25T00:40:15.756Z,44.73
2018-11-25T00:42:45.450Z,42.73
2018-11-25T00:45:19.429Z,42.00
2018-11-25T00:47:49.077Z,43.00
2018-11-25T00:50:17.863Z,41.63
2018-11-25T00:52:46.614Z,42.93
2018-11-25T00:55:17.700Z,42.17
2018-11-25T00:57:46.483Z,41.37
2018-11-25T01:00:17.360Z,41.93
2018-11-25T01:02:49.732Z,45.07
2018-11-25T01:05:18.697Z,44.70
2018-11-25T01:07:47.452Z,45.90
2018-11-25T01:10:16.981Z,45.67
2018-11-25T01:12:46.063Z,45.63
2018-11-25T01:15:15.639Z,45.30
2018-11-25T01:17:44.865Z,44.00
2018-11-25T01:20:18.741Z,46.40
2018-11-25T01:22:47.674Z,46.40
2018-11-25T01:25:16.868Z,45.83
2018-11-25T01:27:46.284Z,46.10
2018-11-25T01:30:16.846Z,45.90
2018-11-25T01:32:45.772Z,47.13
2018-11-25T01:35:14.754Z,47.10
2018-11-25T01:37:43.815Z,48.77
2018-11-25T01:40:14.574Z,45.03
2018-11-25T01:42:43.324Z,43.23
2018-11-25T01:45:14.286Z,48.23
2018-11-25T01:47:43.064Z,50.33
2018-11-25T01:50:13.979Z,48.93
2018-11-25T01:52:42.976Z,46.85
2018-11-25T01:55:13.062Z,46.92
2018-11-25T01:57:41.802Z,48.73
2018-11-25T02:00:17.117Z,49.30
2018-11-25T02:02:45.878Z,48.23
2018-11-25T02:05:14.779Z,47.20
2018-11-25T02:07:43.623Z,47.10
2018-11-25T02:10:14.741Z,48.85
2018-11-25T02:12:43.768Z,49.00
2018-11-25T02:15:14.633Z,48.90
2018-11-25T02:17:43.418Z,50.00
2018-11-25T02:20:22.375Z,49.47
2018-11-25T02:22:51.868Z,48.53
2018-11-25T02:25:20.813Z,49.30
2018-11-25T02:27:49.800Z,47.10
2018-11-25T02:30:19.014Z,49.23
2018-11-25T02:32:48.103Z,49.73
2018-11-25T02:35:17.627Z,48.30
2018-11-25T02:37:46.449Z,48.70
2018-11-25T02:40:16.112Z,49.03
2018-11-25T02:42:44.883Z,51.07
2018-11-25T02:45:18.496Z,50.37
2018-11-25T02:47:47.587Z,51.47
2018-11-25T02:50:29.775Z,54.23
2018-11-25T02:53:00.689Z,51.47
2018-11-25T02:55:29.711Z,51.67
2018-11-25T02:57:59.186Z,50.03
2018-11-25T03:00:28.380Z,51.85
2018-11-25T03:02:58.015Z,52.87
2018-11-25T03:05:27.004Z,52.05
2018-11-25T03:07:56.013Z,54.47
2018-11-25T03:10:24.826Z,49.63
2018-11-25T03:12:53.643Z,52.00
2018-11-25T03:15:22.474Z,52.67
2018-11-25T03:17:51.406Z,53.00
2018-11-25T03:20:20.285Z,50.73
2018-11-25T03:22:49.172Z,53.87
2018-11-25T03:25:18.956Z,53.52
2018-11-25T03:27:48.052Z,49.40
2018-11-25T03:30:17.802Z,51.57
2018-11-25T03:32:47.538Z,51.07
2018-11-25T03:35:16.473Z,51.23
2018-11-25T03:37:45.965Z,49.53
2018-11-25T03:40:16.670Z,50.07
2018-11-25T03:42:45.485Z,49.73
2018-11-25T03:45:17.171Z,50.10
2018-11-25T03:47:46.000Z,47.20
2018-11-25T03:50:15.482Z,48.60
2018-11-25T03:52:44.371Z,48.13
2018-11-25T03:55:14.034Z,48.80
2018-11-25T03:57:42.886Z,49.95
2018-11-25T04:00:15.827Z,51.43
2018-11-25T04:02:44.645Z,48.43
2018-11-25T04:05:14.615Z,48.97
2018-11-25T04:07:43.409Z,51.00
2018-11-25T04:10:13.433Z,49.33
2018-11-25T04:12:42.177Z,51.35
2018-11-25T04:15:16.288Z,52.03
2018-11-25T04:17:45.206Z,49.23
2018-11-25T04:20:15.823Z,47.20
2018-11-25T04:22:44.647Z,50.03
2018-11-25T04:25:13.963Z,48.13
2018-11-25T04:27:42.762Z,47.73
2018-11-25T04:30:16.059Z,49.87
2018-11-25T04:32:45.486Z,45.53
2018-11-25T04:35:14.428Z,47.33
2018-11-25T04:37:43.393Z,47.30
2018-11-25T04:40:13.284Z,48.40
2018-11-25T04:42:42.199Z,44.95
2018-11-25T04:45:15.008Z,44.53
2018-11-25T04:47:43.878Z,48.10
2018-11-25T04:50:20.902Z,48.07
2018-11-25T04:52:49.921Z,45.33
2018-11-25T04:55:18.837Z,45.93
2018-11-25T04:57:51.743Z,48.30
2018-11-25T05:00:20.793Z,44.27
2018-11-25T05:02:50.427Z,46.90
2018-11-25T05:05:19.235Z,45.07
2018-11-25T05:07:47.965Z,46.18
2018-11-25T05:10:17.760Z,45.03
2018-11-25T05:12:46.818Z,47.20
2018-11-25T05:15:21.433Z,46.37
2018-11-25T05:17:50.669Z,46.43
2018-11-25T05:20:20.090Z,46.57
2018-11-25T05:22:48.899Z,47.20
2018-11-25T05:25:18.924Z,45.97
2018-11-25T05:27:47.621Z,44.20
2018-11-25T05:30:18.527Z,45.70
2018-11-25T05:32:47.413Z,48.60
2018-11-25T05:35:17.121Z,45.90
2018-11-25T05:37:45.855Z,46.40
2018-11-25T05:40:15.639Z,48.33
2018-11-25T05:42:44.491Z,48.38
2018-11-25T05:45:18.026Z,46.53
2018-11-25T05:47:46.846Z,47.60
2018-11-25T05:50:18.122Z,49.90
2018-11-25T05:52:46.965Z,46.57
2018-11-25T05:55:15.721Z,45.27
2018-11-25T05:57:44.405Z,49.30
2018-11-25T06:00:23.156Z,49.67
2018-11-25T06:02:51.867Z,48.30
2018-11-25T06:05:20.575Z,48.40
2018-11-25T06:07:49.387Z,46.30
2018-11-25T06:10:18.099Z,48.05
2018-11-25T06:12:46.827Z,48.43
2018-11-25T06:15:15.771Z,49.37
2018-11-25T06:17:44.484Z,48.00
2018-11-25T06:20:18.114Z,48.28
2018-11-25T06:22:47.200Z,51.33
2018-11-25T06:25:17.966Z,47.67
2018-11-25T06:27:46.825Z,46.97
2018-11-25T06:30:20.515Z,47.67
2018-11-25T06:32:49.480Z,46.57
2018-11-25T06:35:19.135Z,49.73
2018-11-25T06:37:47.908Z,47.60
2018-11-25T06:40:18.554Z,47.17
2018-11-25T06:42:47.343Z,49.63
2018-11-25T06:45:18.486Z,47.47
2018-11-25T06:47:47.383Z,52.95
2018-11-25T06:50:16.116Z,49.07
2018-11-25T06:52:44.802Z,48.83
2018-11-25T06:55:13.965Z,46.63
2018-11-25T06:57:42.673Z,48.33
2018-11-25T07:00:16.618Z,49.00
2018-11-25T07:02:45.325Z,47.23
2018-11-25T07:05:14.112Z,50.53
2018-11-25T07:07:42.871Z,48.50
2018-11-25T07:10:13.644Z,49.27
2018-11-25T07:12:42.367Z,47.38
2018-11-25T07:15:12.618Z,49.10
2018-11-25T07:17:41.300Z,47.98
2018-11-25T07:20:12.179Z,50.80
2018-11-25T07:22:41.112Z,48.20
2018-11-25T07:25:25.535Z,46.70
2018-11-25T07:27:54.262Z,46.58
2018-11-25T07:30:27.250Z,48.13
2018-11-25T07:32:56.133Z,47.93
2018-11-25T07:35:26.036Z,45.47
2018-11-25T07:37:54.791Z,46.73
2018-11-25T07:40:24.243Z,49.50
2018-11-25T07:42:53.325Z,48.23
2018-11-25T07:45:30.219Z,47.67
2018-11-25T07:47:53.927Z,48.17
2018-11-25T07:50:22.647Z,51.63
2018-11-25T07:52:51.895Z,48.83
2018-11-25T07:55:21.711Z,49.17
2018-11-25T07:57:51.527Z,49.30
2018-11-25T08:00:21.820Z,50.77
2018-11-25T08:02:50.703Z,50.93
2018-11-25T08:05:22.998Z,48.30
2018-11-25T08:07:51.807Z,48.07
2018-11-25T08:10:20.616Z,46.77
2018-11-25T08:12:49.827Z,51.53
2018-11-25T08:15:20.210Z,52.37
2018-11-25T08:17:49.114Z,49.90
2018-11-25T08:20:19.743Z,52.57
2018-11-25T08:22:48.613Z,51.48
2018-11-25T08:25:21.403Z,51.77
2018-11-25T08:27:50.758Z,51.93
2018-11-25T08:30:23.290Z,51.55
2018-11-25T08:32:52.518Z,52.33
2018-11-25T08:35:21.299Z,52.93
2018-11-25T08:37:50.092Z,52.07
2018-11-25T08:40:24.683Z,54.30
2018-11-25T08:42:54.125Z,53.78
2018-11-25T08:45:22.908Z,52.73
2018-11-25T08:47:51.703Z,52.00
2018-11-25T08:50:21.001Z,54.37
2018-11-25T08:52:51.567Z,56.83
2018-11-25T08:55:24.488Z,53.10
2018-11-25T08:57:53.556Z,53.03
2018-11-25T09:00:23.288Z,52.20
2018-11-25T09:02:52.874Z,52.70
2018-11-25T09:05:21.656Z,54.97
2018-11-25T09:07:50.408Z,54.80
2018-11-25T09:10:21.089Z,54.87
2018-11-25T09:12:56.049Z,56.03
2018-11-25T09:15:24.358Z,53.73
2018-11-25T09:17:53.056Z,52.70
2018-11-25T09:20:22.403Z,52.67
2018-11-25T09:22:51.864Z,54.97
2018-11-25T09:25:30.524Z,53.40
2018-11-25T09:28:00.571Z,51.87
2018-11-25T09:30:30.281Z,50.87
2018-11-25T09:32:59.539Z,53.23
2018-11-25T09:35:28.423Z,54.30
2018-11-25T09:37:57.918Z,53.60
2018-11-25T09:40:28.331Z,56.77
2018-11-25T09:42:57.865Z,55.63
2018-11-25T09:45:27.683Z,59.40
2018-11-25T09:47:56.633Z,57.47
2018-11-25T09:50:25.408Z,57.93
2018-11-25T09:52:54.211Z,55.30
2018-11-25T09:55:24.053Z,55.80
2018-11-25T09:57:59.336Z,57.93
2018-11-25T10:00:34.030Z,54.63
2018-11-25T10:03:03.576Z,57.70
2018-11-25T10:05:32.479Z,55.92
2018-11-25T10:08:01.256Z,53.93
2018-11-25T10:10:30.853Z,58.77
2018-11-25T10:12:59.605Z,58.30
2018-11-25T10:15:29.361Z,57.30
2018-11-25T10:17:59.722Z,60.27
2018-11-25T10:20:30.213Z,57.67
2018-11-25T10:22:59.212Z,54.27
2018-11-25T10:25:28.069Z,52.33
2018-11-25T10:27:58.165Z,55.95
2018-11-25T10:30:31.044Z,52.60
2018-11-25T10:33:01.632Z,50.70
2018-11-25T10:35:30.612Z,49.23
2018-11-25T10:37:59.508Z,52.83
2018-11-25T10:40:28.344Z,51.87
2018-11-25T10:42:57.852Z,51.05
2018-11-25T10:45:27.826Z,51.67
2018-11-25T10:48:00.570Z,51.50
2018-11-25T10:50:29.498Z,49.23
2018-11-25T10:52:58.217Z,51.63
2018-11-25T10:55:34.500Z,52.23
2018-11-25T10:58:03.291Z,49.35
2018-11-25T11:00:38.874Z,49.83
2018-11-25T11:03:14.872Z,48.10
2018-11-25T11:05:48.939Z,47.03
2018-11-25T11:08:17.722Z,47.95
2018-11-25T11:10:46.488Z,45.27
2018-11-25T11:13:15.246Z,47.07
2018-11-25T11:15:44.051Z,46.47
2018-11-25T11:18:12.800Z,46.05
2018-11-25T11:20:41.674Z,49.00
2018-11-25T11:23:10.454Z,46.75
2018-11-25T11:25:39.199Z,48.85
2018-11-25T11:28:07.991Z,46.28
2018-11-25T11:30:36.711Z,49.05
2018-11-25T11:33:05.771Z,49.17
2018-11-25T11:35:34.643Z,50.80
2018-11-25T11:38:03.385Z,48.63
2018-11-25T11:40:32.245Z,49.98
2018-11-25T11:43:01.129Z,51.30
2018-11-25T11:45:29.944Z,49.83
2018-11-25T11:47:58.698Z,49.47
2018-11-25T11:50:28.100Z,52.08
2018-11-25T11:52:56.816Z,52.67
2018-11-25T11:55:25.572Z,51.73
2018-11-25T11:57:54.422Z,50.80
2018-11-25T12:00:26.304Z,49.80
2018-11-25T12:02:55.278Z,52.17
2018-11-25T12:05:24.070Z,52.37
2018-11-25T12:07:52.815Z,52.85
2018-11-25T12:10:21.790Z,52.67
2018-11-25T12:12:50.520Z,52.17
2018-11-25T12:15:36.737Z,54.23
2018-11-25T12:18:06.045Z,53.30
2018-11-25T12:20:34.983Z,54.90
2018-11-25T12:23:03.775Z,51.97
2018-11-25T12:25:32.603Z,54.23
2018-11-25T12:28:01.390Z,53.40
2018-11-25T12:30:30.316Z,55.33
2018-11-25T12:32:59.094Z,55.38
2018-11-25T12:35:28.123Z,54.83
2018-11-25T12:37:56.934Z,54.43
2018-11-25T12:40:25.680Z,54.73
2018-11-25T12:42:57.722Z,55.10
2018-11-25T12:45:26.551Z,55.13
2018-11-25T12:47:55.358Z,52.00
2018-11-25T12:50:25.257Z,51.93
2018-11-25T12:52:54.046Z,56.02
2018-11-25T12:55:25.300Z,53.03
2018-11-25T12:57:54.525Z,56.03
2018-11-25T13:00:35.315Z,55.23
2018-11-25T13:03:04.518Z,56.98
2018-11-25T13:05:33.830Z,58.75
2018-11-25T13:08:02.706Z,55.58
2018-11-25T13:10:31.733Z,55.33
2018-11-25T13:13:00.663Z,55.73
2018-11-25T13:15:29.375Z,55.50
2018-11-25T13:17:58.264Z,54.47
2018-11-25T13:20:28.155Z,53.95
2018-11-25T13:22:57.109Z,55.77
2018-11-25T13:25:26.023Z,55.20
2018-11-25T13:27:54.915Z,53.97
2018-11-25T13:30:25.737Z,52.73
2018-11-25T13:32:57.044Z,54.97
2018-11-25T13:35:29.144Z,58.83
2018-11-25T13:37:58.873Z,51.55
2018-11-25T13:40:28.379Z,48.58
2018-11-25T13:42:58.198Z,50.10
2018-11-25T13:45:27.119Z,51.27
2018-11-25T13:47:55.946Z,47.83
2018-11-25T13:50:24.838Z,49.20
2018-11-25T13:52:54.454Z,50.13
2018-11-25T13:55:24.921Z,48.60
2018-11-25T13:57:53.656Z,48.13
2018-11-25T14:00:28.354Z,44.47
2018-11-25T14:02:58.299Z,46.42
2018-11-25T14:05:27.031Z,44.93
2018-11-25T14:07:55.943Z,46.40
2018-11-25T14:10:28.681Z,47.43
2018-11-25T14:12:58.255Z,45.50
2018-11-25T14:15:27.330Z,46.50
2018-11-25T14:17:56.076Z,45.12
2018-11-25T14:20:24.926Z,43.33
2018-11-25T14:22:53.688Z,45.50
2018-11-25T14:25:23.369Z,42.30
2018-11-25T14:27:54.271Z,45.35
2018-11-25T14:30:25.099Z,45.30
2018-11-25T14:32:53.989Z,42.17
2018-11-25T14:35:23.064Z,43.00
2018-11-25T14:37:51.840Z,44.80
2018-11-25T14:40:20.878Z,43.17
2018-11-25T14:42:49.800Z,43.40
2018-11-25T14:45:18.933Z,45.00
2018-11-25T14:47:47.675Z,44.70
2018-11-25T14:50:17.723Z,44.43
2018-11-25T14:52:47.716Z,47.87
2018-11-25T14:55:16.734Z,44.70
2018-11-25T14:57:45.624Z,41.80
2018-11-25T15:00:16.028Z,42.53
2018-11-25T15:02:45.728Z,41.98
2018-11-25T15:05:20.966Z,42.00
2018-11-25T15:07:50.026Z,42.03
2018-11-25T15:10:18.730Z,41.57
2018-11-25T15:12:47.748Z,39.70
2018-11-25T15:15:18.223Z,41.47
2018-11-25T15:17:47.014Z,40.10
2018-11-25T15:20:16.631Z,39.25
2018-11-25T15:22:46.479Z,40.80
2018-11-25T15:25:18.307Z,54.37
2018-11-25T15:27:47.088Z,41.70
2018-11-25T15:30:15.842Z,48.93
2018-11-25T15:32:44.639Z,38.90
2018-11-25T15:35:13.830Z,40.80
2018-11-25T15:37:44.840Z,41.58
2018-11-25T15:40:18.369Z,40.90
2018-11-25T15:42:47.769Z,39.83
2018-11-25T15:45:16.538Z,41.73
2018-11-25T15:47:48.290Z,42.55
2018-11-25T15:50:20.592Z,40.03
2018-11-25T15:52:49.771Z,40.03
2018-11-25T15:55:18.618Z,40.47
2018-11-25T15:57:47.690Z,37.87
2018-11-25T16:00:18.743Z,42.87
2018-11-25T16:02:47.748Z,38.83
2018-11-25T16:05:24.152Z,40.90
2018-11-25T16:07:53.038Z,39.97
2018-11-25T16:10:21.843Z,39.87
2018-11-25T16:12:51.351Z,37.37
2018-11-25T16:15:21.508Z,36.53
2018-11-25T16:17:50.260Z,42.53
2018-11-25T16:20:20.658Z,39.70
2018-11-25T16:22:51.899Z,40.43
2018-11-25T16:25:30.833Z,38.23
2018-11-25T16:28:06.607Z,41.77
2018-11-25T16:30:36.782Z,40.20
2018-11-25T16:33:05.720Z,41.85
2018-11-25T16:35:36.468Z,40.77
2018-11-25T16:38:06.158Z,42.30
2018-11-25T16:40:35.148Z,38.33
2018-11-25T16:43:04.239Z,39.35
2018-11-25T16:45:33.206Z,37.45
2018-11-25T16:48:02.147Z,38.93
2018-11-25T16:50:31.174Z,39.07
2018-11-25T16:52:59.951Z,39.37
2018-11-25T16:55:28.799Z,38.67
2018-11-25T16:58:05.265Z,37.33
2018-11-25T17:00:34.032Z,39.20
2018-11-25T17:03:02.787Z,39.63
2018-11-25T17:05:33.444Z,39.40
2018-11-25T17:09:07.259Z,39.80
2018-11-25T17:11:36.168Z,39.03
2018-11-25T17:14:05.368Z,38.28
2018-11-25T17:16:34.129Z,38.67
2018-11-25T17:19:03.283Z,39.50
2018-11-25T17:21:32.062Z,37.47
2018-11-25T17:24:00.855Z,38.33
2018-11-25T17:26:29.728Z,36.53
2018-11-25T17:28:58.591Z,37.88
2018-11-25T17:31:27.520Z,38.37
2018-11-25T17:33:56.383Z,35.10
2018-11-25T17:36:25.071Z,36.70
2018-11-25T17:38:53.770Z,36.23
2018-11-25T17:41:22.789Z,36.80
2018-11-25T17:43:51.759Z,34.83
2018-11-25T17:46:20.578Z,34.83
2018-11-25T17:48:49.714Z,34.20
2018-11-25T17:51:18.359Z,33.02
2018-11-25T17:53:47.058Z,35.37
2018-11-25T17:56:15.780Z,34.17
2018-11-25T17:58:44.468Z,36.05
2018-11-25T18:01:13.229Z,34.00
2018-11-25T18:03:42.252Z,36.43
2018-11-25T18:06:11.015Z,35.73
2018-11-25T18:08:39.791Z,37.60
2018-11-25T18:11:08.535Z,36.60
2018-11-25T18:13:39.449Z,34.50
2018-11-25T18:16:11.015Z,36.87
2018-11-25T18:18:47.918Z,38.20
2018-11-25T18:21:20.811Z,37.33
2018-11-25T18:23:49.520Z,37.90
2018-11-25T18:26:18.299Z,35.37
2018-11-25T18:28:47.506Z,33.03
2018-11-25T18:31:16.278Z,32.70
2018-11-25T18:33:45.059Z,31.87
2018-11-25T18:36:14.792Z,32.23
2018-11-25T18:38:43.656Z,33.45
2018-11-25T18:41:12.424Z,33.10
2018-11-25T18:43:41.488Z,31.73
2018-11-25T18:46:10.315Z,32.83
2018-11-25T18:48:41.787Z,31.65
2018-11-25T18:51:10.646Z,31.48
2018-11-25T18:53:39.407Z,32.08
2018-11-25T18:56:08.089Z,32.05
2018-11-25T18:58:36.856Z,32.93
2018-11-25T19:01:14.159Z,31.95
2018-11-25T19:03:42.990Z,30.60
2018-11-25T19:06:11.748Z,30.82
2018-11-25T19:08:40.632Z,30.53
2018-11-25T19:11:09.531Z,32.60
2018-11-25T19:13:38.287Z,33.33
2018-11-25T19:16:07.084Z,29.70
2018-11-25T19:18:36.012Z,31.77
2018-11-25T19:21:04.786Z,31.30
2018-11-25T19:23:33.542Z,31.33
2018-11-25T19:26:02.352Z,31.97
2018-11-25T19:28:31.061Z,29.67
2018-11-25T19:30:59.829Z,31.10
2018-11-25T19:33:28.820Z,28.83
2018-11-25T19:35:57.612Z,29.47
2018-11-25T19:38:26.334Z,29.00
2018-11-25T19:40:55.204Z,27.50
2018-11-25T19:43:23.975Z,26.73
2018-11-25T19:45:52.724Z,28.13
2018-11-25T19:48:22.031Z,27.97
2018-11-25T19:50:50.981Z,27.83
2018-11-25T19:53:19.741Z,29.50
2018-11-25T19:55:48.671Z,29.13
2018-11-25T19:58:17.517Z,28.90
2018-11-25T20:00:46.335Z,29.30
2018-11-25T20:03:15.194Z,28.70
2018-11-25T20:05:44.106Z,27.83
2018-11-25T20:08:12.860Z,27.40
2018-11-25T20:10:41.972Z,27.67
2018-11-25T20:13:11.943Z,28.20
2018-11-25T20:15:39.914Z,26.02
2018-11-25T20:18:10.077Z,27.40
2018-11-25T20:20:38.866Z,27.50
2018-11-25T20:23:07.883Z,24.95
2018-11-25T20:25:36.748Z,26.05
2018-11-25T20:28:05.553Z,26.63
2018-11-25T20:30:34.860Z,26.03
2018-11-25T20:33:08.851Z,25.27
2018-11-25T20:35:37.816Z,24.27
2018-11-25T20:38:12.335Z,24.83
2018-11-25T20:40:41.071Z,24.10
2018-11-25T20:43:09.805Z,24.07
2018-11-25T20:45:43.699Z,24.47
2018-11-25T20:48:12.407Z,24.63
2018-11-25T20:50:41.219Z,24.70
2018-11-25T20:53:15.217Z,24.23
2018-11-25T20:55:44.024Z,24.77
2018-11-25T20:58:12.798Z,24.33
2018-11-25T21:00:42.614Z,24.27
2018-11-25T21:03:12.346Z,24.73
2018-11-25T21:05:41.132Z,25.27
2018-11-25T21:08:09.960Z,24.45
2018-11-25T21:10:39.018Z,24.40
2018-11-25T21:13:08.291Z,23.25
2018-11-25T21:15:37.286Z,24.82
2018-11-25T21:18:06.681Z,23.98
2018-11-25T21:20:35.416Z,23.03
2018-11-25T21:23:04.407Z,25.10
2018-11-25T21:25:33.259Z,25.30
2018-11-25T21:28:02.060Z,24.07
2018-11-25T21:30:30.993Z,25.63
2018-11-25T21:32:59.863Z,26.63
2018-11-25T21:35:28.950Z,24.70
2018-11-25T21:37:57.722Z,24.97
2018-11-25T21:40:26.737Z,24.27
2018-11-25T21:42:55.493Z,24.97
2018-11-25T21:45:24.370Z,24.13
2018-11-25T21:47:53.124Z,24.20
2018-11-25T21:50:23.444Z,23.30
2018-11-25T21:52:52.403Z,24.50
2018-11-25T21:55:21.289Z,24.00
2018-11-25T21:57:50.073Z,25.40
2018-11-25T22:00:20.658Z,25.93
2018-11-25T22:02:49.472Z,25.33
2018-11-25T22:05:18.433Z,24.63
2018-11-25T22:07:47.377Z,23.67
2018-11-25T22:10:17.703Z,25.23
2018-11-25T22:12:46.852Z,25.15
2018-11-25T22:15:23.572Z,24.52
2018-11-25T22:17:52.543Z,23.97
2018-11-25T22:20:21.249Z,23.90
2018-11-25T22:22:50.112Z,22.55
2018-11-25T22:25:20.078Z,23.18
2018-11-25T22:27:49.049Z,23.77
2018-11-25T22:30:20.752Z,23.73
2018-11-25T22:32:49.493Z,22.87
2018-11-25T22:35:19.428Z,22.17
2018-11-25T22:37:48.452Z,22.30
2018-11-25T22:40:18.161Z,19.90
2018-11-25T22:42:47.765Z,20.88
2018-11-25T22:45:20.679Z,20.02
2018-11-25T22:47:49.497Z,21.33
2018-11-25T22:50:20.478Z,21.90
2018-11-25T22:52:49.675Z,21.20
2018-11-25T22:55:22.950Z,21.53
2018-11-25T22:57:51.887Z,20.67
2018-11-25T23:00:25.931Z,21.13
2018-11-25T23:02:55.138Z,21.87
2018-11-25T23:05:35.068Z,21.50
2018-11-25T23:08:04.210Z,22.25
2018-11-25T23:10:33.235Z,23.55
2018-11-25T23:13:02.017Z,24.80
2018-11-25T23:15:30.907Z,23.13
2018-11-25T23:17:59.975Z,23.00
2018-11-25T23:20:29.064Z,23.33
2018-11-25T23:22:57.886Z,22.40
2018-11-25T23:25:26.616Z,22.60
2018-11-25T23:27:55.369Z,22.60
2018-11-25T23:30:24.425Z,22.82
2018-11-25T23:32:53.240Z,23.83
2018-11-25T23:35:25.340Z,22.80
2018-11-25T23:37:54.129Z,21.87
2018-11-25T23:40:22.881Z,22.77
2018-11-25T23:42:51.834Z,22.67
2018-11-25T23:45:20.611Z,23.37
2018-11-25T23:47:49.385Z,22.00
2018-11-25T23:50:18.378Z,23.27
2018-11-25T23:52:48.322Z,22.47
2018-11-25T23:55:17.211Z,22.27
2018-11-25T23:57:46.169Z,22.67
